KCID/CID METAR and TAF weather

Enter ICAO airport designator
Station Type Date Time Source
KCID METAR 2021/09/25 12:52 UTC NOAA

KCID 251252Z 28007KT 10SM CLR 07/06 A3007 RMK AO2 SLP186 T00670056 PNO $


Station Type Date Time Source
KCID Decoded METAR 2021/09/25 12:52 UTC NOAA

CEDAR RAPIDS AIRPORT, IA, United States (KCID) 41-53N 91-43W
Sep 25, 2021 - 08:52 AM EDT / 2021.09.25 1252 UTC
Wind: from the W (280 degrees) at 8 MPH (7 KT):0
Visibility: 10 mile(s):0
Sky conditions: clear
Temperature: 44.1 F (6.7 C)
Dew Point: 42.1 F (5.6 C)
Relative Humidity: 92%
Pressure (altimeter): 30.07 in. Hg (1018 hPa)
ob: KCID 251252Z 28007KT 10SM CLR 07/06 A3007 RMK AO2 SLP186 T00670056 PNO
cycle: 13

Station Type Date Time Source
KCID TAF 2021/09/25 12:22 UTC NOAA

TAF KCID 251120Z 2512/2612 30006KT P6SM SCT150
FM251700 28014G22KT P6SM SCT120
FM260000 22007KT P6SM SCT100

Example: see airport list